Saratoga, California
Current Conditions -  °F | °C
As of 12:53 AM on Saturday 25 Oct 2014 (Local Time) from KSJC Reporting Station
Overcast Overcast  
Wind Chill: 17°   Ceiling: 4200
Heat Index: 17°   Visibility: 10mi
Dew Point: 12°   Wind: 9mph
Humidity: 70%   Direction: 100°E
Pressure: 29.94"   Gusts: NA
Location:  37.27°N, 122.01°W
Report Text: KSJC 250753Z AUTO 10008KT 10SM OVC042 17/12 A2994 RMK AO2 SLP138 T01720117 402560106
Loading
Personal Weather Stations






























Interactive Weather Map
Tropical Storm Tracking
New forecast layout! Learn more

10-Day Weather Forecast

Advertisements
Track Severe Weather on mobile